createdAt,value
2019-03-03T00:00:34.878Z,9.81
2019-03-03T00:01:34.893Z,9.81
2019-03-03T00:02:34.911Z,9.81
2019-03-03T00:03:34.890Z,9.81
2019-03-03T00:04:34.887Z,9.81
2019-03-03T00:05:34.883Z,9.81
2019-03-03T00:06:34.866Z,9.81
2019-03-03T00:07:34.868Z,9.81
2019-03-03T00:08:34.858Z,9.81
2019-03-03T00:09:34.851Z,9.81
2019-03-03T00:10:34.838Z,9.75
2019-03-03T00:11:34.858Z,9.81
2019-03-03T00:12:34.861Z,9.75
2019-03-03T00:13:34.884Z,9.81
2019-03-03T00:14:34.858Z,9.81
2019-03-03T00:15:34.824Z,9.75
2019-03-03T00:16:34.875Z,9.75
2019-03-03T00:17:34.842Z,9.75
2019-03-03T00:18:34.842Z,9.75
2019-03-03T00:19:34.847Z,9.75
2019-03-03T00:20:34.843Z,9.75
2019-03-03T00:21:34.843Z,9.75
2019-03-03T00:22:34.864Z,9.75
2019-03-03T00:23:34.854Z,9.75
2019-03-03T00:24:34.832Z,9.75
2019-03-03T00:25:34.863Z,9.75
2019-03-03T00:26:35.119Z,9.75
2019-03-03T00:27:34.912Z,9.75
2019-03-03T00:28:34.844Z,9.75
2019-03-03T00:29:34.848Z,9.75
2019-03-03T00:30:34.830Z,9.75
2019-03-03T00:31:34.856Z,9.81
2019-03-03T00:32:34.874Z,9.81
2019-03-03T00:33:34.839Z,9.75
2019-03-03T00:34:34.823Z,9.75
2019-03-03T00:35:34.840Z,9.75
2019-03-03T00:36:34.873Z,9.75
2019-03-03T00:37:34.807Z,9.75
2019-03-03T00:38:34.819Z,9.69
2019-03-03T00:39:34.808Z,9.75
2019-03-03T00:40:34.831Z,9.75
2019-03-03T00:41:34.801Z,9.75
2019-03-03T00:42:34.821Z,9.75
2019-03-03T00:43:34.881Z,9.75
2019-03-03T00:44:34.829Z,9.75
2019-03-03T00:45:34.828Z,9.75
2019-03-03T00:46:34.812Z,9.75
2019-03-03T00:47:34.786Z,9.75
2019-03-03T00:48:34.842Z,9.75
2019-03-03T00:49:34.813Z,9.81
2019-03-03T00:50:34.790Z,9.75
2019-03-03T00:51:34.799Z,9.75
2019-03-03T00:52:34.780Z,9.81
2019-03-03T00:53:34.812Z,9.75
2019-03-03T00:54:34.778Z,9.75
2019-03-03T00:55:34.807Z,9.75
2019-03-03T00:56:34.789Z,9.75
2019-03-03T00:57:34.777Z,9.75
2019-03-03T00:58:34.810Z,9.75
2019-03-03T00:59:34.776Z,9.75
2019-03-03T01:00:34.781Z,9.75
2019-03-03T01:01:34.804Z,9.75
2019-03-03T01:02:34.789Z,9.75
2019-03-03T01:03:34.811Z,9.75
2019-03-03T01:04:34.796Z,9.69
2019-03-03T01:05:34.787Z,9.75
2019-03-03T01:06:34.778Z,9.69
2019-03-03T01:07:34.784Z,9.69
2019-03-03T01:08:34.766Z,9.75
2019-03-03T01:09:35.105Z,9.75
2019-03-03T01:10:34.798Z,9.69
2019-03-03T01:11:34.783Z,9.69
2019-03-03T01:12:34.767Z,9.69
2019-03-03T01:13:34.774Z,9.69
2019-03-03T01:14:34.768Z,9.69
2019-03-03T01:15:34.786Z,9.69
2019-03-03T01:16:34.793Z,9.69
2019-03-03T01:17:34.846Z,9.69
2019-03-03T01:18:34.774Z,9.69
2019-03-03T01:19:34.759Z,9.69
2019-03-03T01:20:34.743Z,9.75
2019-03-03T01:21:34.750Z,9.75
2019-03-03T01:22:34.753Z,9.69
2019-03-03T01:23:34.755Z,9.69
2019-03-03T01:24:34.751Z,9.69
2019-03-03T01:25:34.739Z,9.69
2019-03-03T01:26:34.741Z,9.69
2019-03-03T01:27:34.739Z,9.69
2019-03-03T01:28:34.771Z,9.69
2019-03-03T01:29:34.776Z,9.69
2019-03-03T01:30:34.755Z,9.69
2019-03-03T01:31:34.893Z,9.69
2019-03-03T01:32:34.752Z,9.69
2019-03-03T01:33:34.775Z,9.69
2019-03-03T01:34:34.751Z,9.69
2019-03-03T01:35:34.781Z,9.69
2019-03-03T01:36:34.780Z,9.69
2019-03-03T01:37:34.730Z,9.69
2019-03-03T01:38:34.735Z,9.69
2019-03-03T01:39:34.744Z,9.69
2019-03-03T01:40:34.729Z,9.69
2019-03-03T01:41:34.716Z,9.69
2019-03-03T01:42:34.725Z,9.69
2019-03-03T01:43:34.727Z,9.69
2019-03-03T01:44:34.718Z,9.69
2019-03-03T01:45:34.714Z,9.69
2019-03-03T01:46:34.751Z,9.69
2019-03-03T01:47:34.712Z,9.69
2019-03-03T01:48:34.757Z,9.69
2019-03-03T01:49:34.698Z,9.69
2019-03-03T01:50:34.716Z,9.69
2019-03-03T01:51:34.714Z,9.69
2019-03-03T01:52:34.696Z,9.69
2019-03-03T01:53:34.900Z,9.69
2019-03-03T01:54:34.772Z,9.75
2019-03-03T01:55:34.747Z,9.69
2019-03-03T01:56:34.753Z,9.69
2019-03-03T01:57:34.673Z,9.69
2019-03-03T01:58:34.695Z,9.69
2019-03-03T01:59:34.723Z,9.69
2019-03-03T02:00:34.700Z,9.69
2019-03-03T02:01:34.727Z,9.69
2019-03-03T02:02:34.750Z,9.69
2019-03-03T02:03:34.671Z,9.63
2019-03-03T02:04:34.696Z,9.69
2019-03-03T02:05:34.678Z,9.69
2019-03-03T02:06:34.688Z,9.69
2019-03-03T02:07:34.692Z,9.69
2019-03-03T02:08:34.687Z,9.63
2019-03-03T02:09:34.686Z,9.69
2019-03-03T02:10:34.669Z,9.69
2019-03-03T02:11:34.676Z,9.63
2019-03-03T02:12:34.722Z,9.69
2019-03-03T02:13:34.722Z,9.63
2019-03-03T02:14:34.703Z,9.63
2019-03-03T02:15:34.703Z,9.69
2019-03-03T02:16:34.681Z,9.69
2019-03-03T02:17:34.687Z,9.69
2019-03-03T02:18:34.663Z,9.69
2019-03-03T02:19:34.670Z,9.69
2019-03-03T02:20:34.685Z,9.69
2019-03-03T02:21:34.650Z,9.63
2019-03-03T02:22:34.684Z,9.69
2019-03-03T02:23:34.848Z,9.69
2019-03-03T02:24:34.801Z,9.63
2019-03-03T02:25:34.693Z,9.69
2019-03-03T02:26:34.691Z,9.63
2019-03-03T02:27:34.660Z,9.63
2019-03-03T02:28:34.659Z,9.63
2019-03-03T02:29:34.668Z,9.63
2019-03-03T02:30:34.697Z,9.69
2019-03-03T02:31:34.654Z,9.63
2019-03-03T02:32:34.704Z,9.63
2019-03-03T02:33:34.659Z,9.63
2019-03-03T02:34:34.686Z,9.63
2019-03-03T02:35:34.657Z,9.69
2019-03-03T02:36:34.712Z,9.63
2019-03-03T02:37:34.683Z,9.63
2019-03-03T02:38:34.632Z,9.63
2019-03-03T02:39:34.677Z,9.63
2019-03-03T02:40:34.679Z,9.63
2019-03-03T02:41:34.650Z,9.63
2019-03-03T02:42:34.642Z,9.63
2019-03-03T02:43:34.637Z,9.63
2019-03-03T02:44:34.648Z,9.56
2019-03-03T02:45:34.617Z,9.56
2019-03-03T02:46:35.888Z,9.56
2019-03-03T02:47:34.650Z,9.56
2019-03-03T02:48:34.648Z,9.56
2019-03-03T02:49:34.681Z,9.56
2019-03-03T02:50:34.674Z,9.56
2019-03-03T02:51:34.643Z,9.63
2019-03-03T02:52:34.659Z,9.56
2019-03-03T02:53:34.703Z,9.56
2019-03-03T02:54:34.664Z,9.56
2019-03-03T02:55:34.658Z,9.56
2019-03-03T02:56:34.652Z,9.56
2019-03-03T02:57:34.623Z,9.56
2019-03-03T02:58:34.628Z,9.63
2019-03-03T02:59:34.640Z,9.56
2019-03-03T03:00:34.936Z,9.56
2019-03-03T03:01:34.645Z,9.56
2019-03-03T03:02:34.623Z,9.56
2019-03-03T03:03:34.639Z,9.56
2019-03-03T03:04:34.619Z,9.5
2019-03-03T03:05:34.643Z,9.5
2019-03-03T03:06:34.673Z,9.56
2019-03-03T03:07:34.921Z,9.5
2019-03-03T03:08:34.690Z,9.5
2019-03-03T03:09:34.655Z,9.5
2019-03-03T03:10:34.635Z,9.5
2019-03-03T03:11:34.623Z,9.5
2019-03-03T03:12:34.632Z,9.5
2019-03-03T03:13:34.625Z,9.5
2019-03-03T03:14:34.616Z,9.5
2019-03-03T03:15:34.621Z,9.5
2019-03-03T03:16:34.644Z,9.5
2019-03-03T03:17:34.619Z,9.5
2019-03-03T03:18:34.584Z,9.5
2019-03-03T03:19:34.624Z,9.5
2019-03-03T03:20:34.639Z,9.44
2019-03-03T03:21:34.573Z,9.5
2019-03-03T03:22:34.625Z,9.5
2019-03-03T03:23:34.695Z,9.44
2019-03-03T03:24:34.580Z,9.5
2019-03-03T03:25:34.605Z,9.44
2019-03-03T03:26:34.645Z,9.44
2019-03-03T03:27:34.614Z,9.44
2019-03-03T03:28:34.591Z,9.44
2019-03-03T03:29:35.078Z,9.44
2019-03-03T03:30:34.667Z,9.44
2019-03-03T03:31:34.685Z,9.44
2019-03-03T03:32:34.668Z,9.44
2019-03-03T03:33:34.656Z,9.44
2019-03-03T03:34:34.684Z,9.44
2019-03-03T03:35:34.596Z,9.44
2019-03-03T03:36:37.370Z,9.44
2019-03-03T03:37:34.611Z,9.44
2019-03-03T03:38:34.574Z,9.44
2019-03-03T03:39:34.591Z,9.44
2019-03-03T03:40:34.581Z,9.44
2019-03-03T03:41:34.586Z,9.44
2019-03-03T03:42:34.583Z,9.5
2019-03-03T03:43:34.627Z,9.44
2019-03-03T03:44:34.563Z,9.44
2019-03-03T03:45:34.603Z,9.44
2019-03-03T03:46:34.572Z,9.44
2019-03-03T03:47:34.586Z,9.44
2019-03-03T03:48:34.556Z,9.44
2019-03-03T03:49:34.597Z,9.38
2019-03-03T03:50:34.591Z,9.44
2019-03-03T03:51:34.634Z,9.44
2019-03-03T03:52:34.642Z,9.44
2019-03-03T03:53:34.655Z,9.44
2019-03-03T03:54:34.581Z,9.44
2019-03-03T03:55:34.577Z,9.5
2019-03-03T03:56:34.579Z,9.44
2019-03-03T03:57:34.535Z,9.44
2019-03-03T03:58:34.591Z,9.5
2019-03-03T03:59:34.607Z,9.44
2019-03-03T04:00:34.572Z,9.5
2019-03-03T04:01:34.668Z,9.5
2019-03-03T04:02:34.593Z,9.5
2019-03-03T04:03:34.568Z,9.5
2019-03-03T04:04:34.551Z,9.5
2019-03-03T04:05:34.551Z,9.5
2019-03-03T04:06:34.561Z,9.44
2019-03-03T04:07:34.529Z,9.5
2019-03-03T04:08:34.554Z,9.5
2019-03-03T04:09:34.549Z,9.5
2019-03-03T04:10:34.506Z,9.5
2019-03-03T04:11:34.542Z,9.5
2019-03-03T04:12:34.579Z,9.5
2019-03-03T04:13:34.668Z,9.5
2019-03-03T04:14:35.159Z,9.5
2019-03-03T04:15:34.500Z,9.5
2019-03-03T04:16:34.544Z,9.5
2019-03-03T04:17:34.521Z,9.5
2019-03-03T04:18:34.559Z,9.5
2019-03-03T04:19:34.551Z,9.5
2019-03-03T04:20:34.522Z,9.56
2019-03-03T04:21:34.541Z,9.5
2019-03-03T04:22:34.527Z,9.5
2019-03-03T04:23:34.503Z,9.5
2019-03-03T04:24:34.539Z,9.5
2019-03-03T04:25:34.507Z,9.56
2019-03-03T04:26:34.510Z,9.56
2019-03-03T04:27:34.512Z,9.5
2019-03-03T04:28:34.548Z,9.5
2019-03-03T04:29:34.505Z,9.5
2019-03-03T04:30:34.509Z,9.5
2019-03-03T04:31:34.532Z,9.56
2019-03-03T04:32:34.483Z,9.5
2019-03-03T04:33:34.467Z,9.5
2019-03-03T04:34:34.474Z,9.5
2019-03-03T04:35:34.486Z,9.5
2019-03-03T04:36:34.506Z,9.5
2019-03-03T04:37:34.496Z,9.5
2019-03-03T04:38:34.468Z,9.5
2019-03-03T04:39:34.483Z,9.5
2019-03-03T04:40:34.473Z,9.5
2019-03-03T04:41:34.469Z,9.5
2019-03-03T04:42:34.483Z,9.5
2019-03-03T04:43:34.491Z,9.5
2019-03-03T04:44:34.483Z,9.5
2019-03-03T04:45:34.471Z,9.5
2019-03-03T04:46:34.510Z,9.5
2019-03-03T04:47:34.478Z,9.5
2019-03-03T04:48:34.531Z,9.5
2019-03-03T04:49:34.549Z,9.5
2019-03-03T04:50:34.478Z,9.5
2019-03-03T04:51:34.480Z,9.5
2019-03-03T04:52:34.470Z,9.5
2019-03-03T04:53:34.502Z,9.5
2019-03-03T04:54:34.475Z,9.5
2019-03-03T04:55:34.489Z,9.5
2019-03-03T04:56:34.442Z,9.5
2019-03-03T04:57:34.497Z,9.56
2019-03-03T04:58:34.592Z,9.5
2019-03-03T04:59:34.543Z,9.5
2019-03-03T05:00:34.473Z,9.5
2019-03-03T05:01:34.489Z,9.56
2019-03-03T05:02:34.461Z,9.56
2019-03-03T05:03:34.466Z,9.56
2019-03-03T05:04:34.489Z,9.56
2019-03-03T05:05:34.462Z,9.5
2019-03-03T05:06:34.495Z,9.5
2019-03-03T05:07:34.512Z,9.5
2019-03-03T05:08:34.498Z,9.56
2019-03-03T05:09:34.464Z,9.56
2019-03-03T05:10:34.459Z,9.56
2019-03-03T05:11:34.437Z,9.56
2019-03-03T05:12:34.448Z,9.56
2019-03-03T05:13:34.535Z,9.5
2019-03-03T05:14:34.459Z,9.56
2019-03-03T05:15:34.451Z,9.56
2019-03-03T05:16:34.477Z,9.5
2019-03-03T05:17:34.441Z,9.56
2019-03-03T05:18:34.445Z,9.5
2019-03-03T05:19:34.427Z,9.5
2019-03-03T05:20:34.441Z,9.56
2019-03-03T05:21:34.750Z,9.56
2019-03-03T05:22:34.408Z,9.5
2019-03-03T05:23:34.429Z,9.56
2019-03-03T05:24:34.932Z,9.5
2019-03-03T05:25:34.428Z,9.56
2019-03-03T05:26:34.434Z,9.5
2019-03-03T05:27:34.434Z,9.56
2019-03-03T05:28:34.434Z,9.56
2019-03-03T05:29:34.435Z,9.56
2019-03-03T05:30:34.410Z,9.56
2019-03-03T05:31:34.416Z,9.56
2019-03-03T05:32:34.423Z,9.56
2019-03-03T05:33:34.406Z,9.63
2019-03-03T05:34:34.414Z,9.56
2019-03-03T05:35:34.428Z,9.63
2019-03-03T05:36:34.417Z,9.63
2019-03-03T05:37:34.424Z,9.63
2019-03-03T05:38:34.479Z,9.63
2019-03-03T05:39:34.417Z,9.56
2019-03-03T05:40:34.423Z,9.63
2019-03-03T05:41:34.402Z,9.63
2019-03-03T05:42:34.408Z,9.63
2019-03-03T05:43:34.598Z,9.63
2019-03-03T05:44:34.390Z,9.63
2019-03-03T05:45:34.372Z,9.63
2019-03-03T05:46:34.377Z,9.63
2019-03-03T05:47:34.515Z,9.63
2019-03-03T05:48:34.421Z,9.63
2019-03-03T05:49:34.363Z,9.63
2019-03-03T05:50:34.381Z,9.63
2019-03-03T05:51:34.372Z,9.69
2019-03-03T05:52:34.406Z,9.63
2019-03-03T05:53:34.385Z,9.63
2019-03-03T05:54:34.366Z,9.63
2019-03-03T05:55:34.390Z,9.63
2019-03-03T05:56:34.359Z,9.63
2019-03-03T05:57:34.383Z,9.63
2019-03-03T05:58:34.361Z,9.69
2019-03-03T05:59:34.372Z,9.63
2019-03-03T06:00:34.433Z,9.63
2019-03-03T06:01:34.593Z,9.63
2019-03-03T06:02:34.372Z,9.63
2019-03-03T06:03:34.362Z,9.63
2019-03-03T06:04:34.386Z,9.56
2019-03-03T06:05:34.440Z,9.56
2019-03-03T06:06:34.433Z,9.63
2019-03-03T06:07:34.352Z,9.56
2019-03-03T06:08:34.354Z,9.63
2019-03-03T06:09:34.349Z,9.63
2019-03-03T06:10:34.343Z,9.56
2019-03-03T06:11:34.350Z,9.63
2019-03-03T06:12:34.358Z,9.56
2019-03-03T06:13:34.366Z,9.63
2019-03-03T06:14:34.370Z,9.56
2019-03-03T06:15:34.403Z,9.63
2019-03-03T06:16:34.351Z,9.63
2019-03-03T06:17:34.338Z,9.63
2019-03-03T06:18:34.372Z,9.63
2019-03-03T06:19:34.358Z,9.63
2019-03-03T06:20:34.330Z,9.63
2019-03-03T06:21:34.338Z,9.63
2019-03-03T06:22:34.337Z,9.63
2019-03-03T06:23:34.334Z,9.63
2019-03-03T06:24:34.341Z,9.63
2019-03-03T06:25:34.351Z,9.63
2019-03-03T06:26:34.340Z,9.63
2019-03-03T06:27:34.393Z,9.63
2019-03-03T06:28:34.333Z,9.63
2019-03-03T06:29:34.339Z,9.69
2019-03-03T06:30:34.344Z,9.63
2019-03-03T06:31:34.312Z,9.69
2019-03-03T06:32:34.330Z,9.69
2019-03-03T06:33:34.381Z,9.63
2019-03-03T06:34:34.316Z,9.69
2019-03-03T06:35:34.321Z,9.63
2019-03-03T06:36:34.332Z,9.63
2019-03-03T06:37:34.320Z,9.69
2019-03-03T06:38:34.329Z,9.63
2019-03-03T06:39:34.384Z,9.69
2019-03-03T06:40:34.317Z,9.75
2019-03-03T06:41:34.302Z,9.69
2019-03-03T06:42:34.340Z,9.75
2019-03-03T06:43:34.310Z,9.75
2019-03-03T06:44:34.323Z,9.75
2019-03-03T06:45:34.323Z,9.69
2019-03-03T06:46:34.308Z,9.69
2019-03-03T06:47:34.307Z,9.75
2019-03-03T06:48:34.297Z,9.69
2019-03-03T06:49:34.428Z,9.75
2019-03-03T06:50:34.336Z,9.75
2019-03-03T06:51:34.395Z,9.75
2019-03-03T06:52:34.322Z,9.75
2019-03-03T06:53:34.300Z,9.75
2019-03-03T06:54:34.310Z,9.75
2019-03-03T06:55:34.305Z,9.75
2019-03-03T06:56:34.309Z,9.75
2019-03-03T06:57:34.305Z,9.75
2019-03-03T06:58:34.272Z,9.81
2019-03-03T06:59:34.321Z,9.81
2019-03-03T07:00:34.274Z,9.81
2019-03-03T07:01:34.295Z,9.81
2019-03-03T07:02:34.272Z,9.81
2019-03-03T07:03:34.293Z,9.81
2019-03-03T07:04:34.274Z,9.75
2019-03-03T07:05:34.278Z,9.81
2019-03-03T07:06:34.287Z,9.81
2019-03-03T07:07:34.279Z,9.81
2019-03-03T07:08:34.318Z,9.81
2019-03-03T07:09:34.300Z,9.81
2019-03-03T07:10:34.295Z,9.88
2019-03-03T07:11:34.350Z,9.81
2019-03-03T07:12:34.274Z,9.81
2019-03-03T07:13:34.295Z,9.81
2019-03-03T07:14:34.269Z,9.81
2019-03-03T07:15:34.271Z,9.81
2019-03-03T07:16:34.261Z,9.81
2019-03-03T07:17:34.279Z,9.81
2019-03-03T07:18:34.262Z,9.88
2019-03-03T07:19:34.256Z,9.81
2019-03-03T07:20:34.271Z,9.88
2019-03-03T07:21:34.273Z,9.88
2019-03-03T07:22:34.247Z,9.81
2019-03-03T07:23:34.266Z,9.88
2019-03-03T07:24:34.258Z,9.81
2019-03-03T07:25:34.240Z,9.88
2019-03-03T07:26:34.278Z,9.88
2019-03-03T07:27:34.282Z,9.88
2019-03-03T07:28:34.250Z,9.88
2019-03-03T07:29:34.248Z,9.88
2019-03-03T07:30:34.248Z,9.88
2019-03-03T07:31:34.284Z,9.94
2019-03-03T07:32:34.306Z,9.88
2019-03-03T07:33:34.490Z,9.88
2019-03-03T07:34:34.254Z,9.94
2019-03-03T07:35:34.255Z,9.88
2019-03-03T07:36:34.308Z,9.94
2019-03-03T07:37:34.220Z,9.88
2019-03-03T07:38:34.238Z,9.94
2019-03-03T07:39:34.246Z,9.94
2019-03-03T07:40:34.227Z,9.94
2019-03-03T07:41:34.263Z,10
2019-03-03T07:42:34.233Z,10
2019-03-03T07:43:34.224Z,10
2019-03-03T07:44:34.209Z,10.06
2019-03-03T07:45:34.228Z,10
2019-03-03T07:46:34.221Z,10.06
2019-03-03T07:47:34.215Z,10.06
2019-03-03T07:48:34.230Z,10.06
2019-03-03T07:49:34.221Z,10.06
2019-03-03T07:50:34.231Z,10.06
2019-03-03T07:51:34.241Z,10.13
2019-03-03T07:52:34.232Z,10.19
2019-03-03T07:53:34.221Z,10.13
2019-03-03T07:54:34.222Z,10.13
2019-03-03T07:55:34.292Z,10.19
2019-03-03T07:56:34.215Z,10.19
2019-03-03T07:57:34.238Z,10.19
2019-03-03T07:58:34.224Z,10.25
2019-03-03T07:59:34.203Z,10.25
2019-03-03T08:00:34.240Z,10.25
2019-03-03T08:01:34.224Z,10.25
2019-03-03T08:02:34.235Z,10.31
2019-03-03T08:03:34.208Z,10.31
2019-03-03T08:04:34.214Z,10.31
2019-03-03T08:05:34.221Z,10.31
2019-03-03T08:06:34.249Z,10.31
2019-03-03T08:07:34.201Z,10.31
2019-03-03T08:08:34.202Z,10.38
2019-03-03T08:09:34.190Z,10.31
2019-03-03T08:10:34.203Z,10.38
2019-03-03T08:11:34.179Z,10.38
2019-03-03T08:12:34.196Z,10.44
2019-03-03T08:13:34.267Z,10.44
2019-03-03T08:14:34.184Z,10.44
2019-03-03T08:15:34.243Z,10.44
2019-03-03T08:16:34.184Z,10.44
2019-03-03T08:17:34.232Z,10.5
2019-03-03T08:18:34.180Z,10.5
2019-03-03T08:19:34.193Z,10.44
2019-03-03T08:20:34.202Z,10.5
2019-03-03T08:21:34.160Z,10.5
2019-03-03T08:22:34.307Z,10.5
2019-03-03T08:23:34.187Z,10.56
2019-03-03T08:24:34.160Z,10.56
2019-03-03T08:25:34.195Z,10.56
2019-03-03T08:26:34.182Z,10.56
2019-03-03T08:27:34.199Z,10.56
2019-03-03T08:28:34.216Z,10.63
2019-03-03T08:29:34.209Z,10.56
2019-03-03T08:30:34.242Z,10.56
2019-03-03T08:31:34.180Z,10.63
2019-03-03T08:32:34.233Z,10.63
2019-03-03T08:33:34.213Z,10.63
2019-03-03T08:34:34.180Z,10.63
2019-03-03T08:35:34.170Z,10.63
2019-03-03T08:36:34.220Z,10.63
2019-03-03T08:37:34.166Z,10.63
2019-03-03T08:38:34.217Z,10.63
2019-03-03T08:39:34.423Z,10.63
2019-03-03T08:40:34.152Z,10.63
2019-03-03T08:41:34.361Z,10.56
2019-03-03T08:42:34.166Z,10.63
2019-03-03T08:43:34.197Z,10.56
2019-03-03T08:44:34.195Z,10.63
2019-03-03T08:45:34.153Z,10.56
2019-03-03T08:46:34.355Z,10.56
2019-03-03T08:47:34.218Z,10.56
2019-03-03T08:48:34.147Z,10.56
2019-03-03T08:49:34.155Z,10.56
2019-03-03T08:50:34.137Z,10.56
2019-03-03T08:51:34.157Z,10.56
2019-03-03T08:52:34.148Z,10.56
2019-03-03T08:53:34.202Z,10.63
2019-03-03T08:54:34.185Z,10.63
2019-03-03T08:55:34.120Z,10.63
2019-03-03T08:56:34.126Z,10.63
2019-03-03T08:57:34.135Z,10.63
2019-03-03T08:58:34.148Z,10.69
2019-03-03T08:59:34.134Z,10.69
2019-03-03T09:00:34.128Z,10.63
2019-03-03T09:01:34.157Z,10.69
2019-03-03T09:02:34.142Z,10.63
2019-03-03T09:03:34.091Z,10.69
2019-03-03T09:04:34.141Z,10.63
2019-03-03T09:05:34.118Z,10.69
2019-03-03T09:06:34.118Z,10.63
2019-03-03T09:07:34.135Z,10.69
2019-03-03T09:08:34.121Z,10.69
2019-03-03T09:09:34.111Z,10.63
2019-03-03T09:10:34.105Z,10.69
2019-03-03T09:11:34.116Z,10.69
2019-03-03T09:12:34.360Z,10.69
2019-03-03T09:13:34.129Z,10.69
2019-03-03T09:14:34.147Z,10.75
2019-03-03T09:15:34.116Z,10.75
2019-03-03T09:16:34.158Z,10.75
2019-03-03T09:17:34.146Z,10.75
2019-03-03T09:18:34.194Z,10.75
2019-03-03T09:19:34.093Z,10.81
2019-03-03T09:20:34.081Z,10.81
2019-03-03T09:21:34.174Z,10.81
2019-03-03T09:22:34.096Z,10.81
2019-03-03T09:23:34.102Z,10.81
2019-03-03T09:24:34.076Z,10.81
2019-03-03T09:25:34.102Z,10.88
2019-03-03T09:26:34.104Z,10.88
2019-03-03T09:27:34.089Z,10.81
2019-03-03T09:28:34.340Z,10.88
2019-03-03T09:29:34.343Z,10.88
2019-03-03T09:30:34.076Z,10.88
2019-03-03T09:31:34.101Z,10.88
2019-03-03T09:32:34.118Z,10.88
2019-03-03T09:33:34.066Z,10.88
2019-03-03T09:34:34.083Z,10.88
2019-03-03T09:35:34.070Z,10.94
2019-03-03T09:36:34.073Z,10.88
2019-03-03T09:37:34.082Z,10.88
2019-03-03T09:38:34.076Z,10.88
2019-03-03T09:39:34.095Z,10.94
2019-03-03T09:40:34.136Z,10.94
2019-03-03T09:41:34.082Z,10.94
2019-03-03T09:42:34.080Z,10.94
2019-03-03T09:43:34.093Z,10.94
2019-03-03T09:44:34.069Z,10.94
2019-03-03T09:45:34.082Z,10.94
2019-03-03T09:46:34.083Z,10.94
2019-03-03T09:47:34.109Z,10.94
2019-03-03T09:48:34.033Z,10.94
2019-03-03T09:49:34.119Z,10.94
2019-03-03T09:50:34.103Z,10.94
2019-03-03T09:51:34.042Z,10.94
2019-03-03T09:52:34.046Z,11
2019-03-03T09:53:34.064Z,10.94
2019-03-03T09:54:34.053Z,10.94
2019-03-03T09:55:34.055Z,10.94
2019-03-03T09:56:34.088Z,11
2019-03-03T09:57:34.016Z,11
2019-03-03T09:58:34.022Z,10.94
2019-03-03T09:59:34.042Z,10.94
2019-03-03T10:00:34.065Z,11
2019-03-03T10:01:34.043Z,10.94
2019-03-03T10:02:34.045Z,10.94
2019-03-03T10:03:34.021Z,10.94
2019-03-03T10:04:34.016Z,10.94
2019-03-03T10:05:34.064Z,11
2019-03-03T10:06:34.284Z,10.94
2019-03-03T10:07:34.196Z,10.94
2019-03-03T10:08:34.022Z,11
2019-03-03T10:09:34.039Z,10.94
2019-03-03T10:10:34.071Z,11
2019-03-03T10:11:34.013Z,11
2019-03-03T10:12:34.054Z,10.94
2019-03-03T10:13:34.025Z,11
2019-03-03T10:14:34.032Z,11
2019-03-03T10:15:34.038Z,11
2019-03-03T10:16:34.113Z,11
2019-03-03T10:17:34.026Z,11
2019-03-03T10:18:34.042Z,11
2019-03-03T10:19:34.045Z,11
2019-03-03T10:20:34.079Z,11
2019-03-03T10:21:34.004Z,11
2019-03-03T10:22:34.031Z,11
2019-03-03T10:23:34.022Z,11
2019-03-03T10:24:34.027Z,11.06
2019-03-03T10:25:34.009Z,11.06
2019-03-03T10:26:35.343Z,11.06
2019-03-03T10:27:34.037Z,11.06
2019-03-03T10:28:34.037Z,11
2019-03-03T10:29:34.374Z,11
2019-03-03T10:30:34.039Z,11.06
2019-03-03T10:31:34.051Z,11.06
2019-03-03T10:32:34.024Z,11.06
2019-03-03T10:33:34.015Z,11.06
2019-03-03T10:34:34.036Z,11.06
2019-03-03T10:35:34.033Z,11.06
2019-03-03T10:36:33.994Z,11.12
2019-03-03T10:37:34.030Z,11.12
2019-03-03T10:38:36.653Z,11.06
2019-03-03T10:39:33.987Z,11.06
2019-03-03T10:40:34.005Z,11.06
2019-03-03T10:41:34.049Z,11.12
2019-03-03T10:42:33.989Z,11.12
2019-03-03T10:43:33.985Z,11.06
2019-03-03T10:44:34.049Z,11.06
2019-03-03T10:45:34.020Z,11.06
2019-03-03T10:46:34.023Z,11.06
2019-03-03T10:47:33.988Z,11.12
2019-03-03T10:48:33.970Z,11.12
2019-03-03T10:49:33.973Z,11.12
2019-03-03T10:50:34.033Z,11.12
2019-03-03T10:51:33.983Z,11.12
2019-03-03T10:52:34.046Z,11.12
2019-03-03T10:53:33.969Z,11.12
2019-03-03T10:54:33.964Z,11.12
2019-03-03T10:55:33.988Z,11.12
2019-03-03T10:56:33.977Z,11.12
2019-03-03T10:57:34.080Z,11.12
2019-03-03T10:58:33.966Z,11.12
2019-03-03T10:59:34.078Z,11.12
2019-03-03T11:00:33.957Z,11.12
2019-03-03T11:01:34.009Z,11.12
2019-03-03T11:02:33.969Z,11.12
2019-03-03T11:03:33.963Z,11.12
2019-03-03T11:04:33.979Z,11.12
2019-03-03T11:05:33.961Z,11.12
2019-03-03T11:06:33.969Z,11.12
2019-03-03T11:07:33.951Z,11.12
2019-03-03T11:08:33.963Z,11.12
2019-03-03T11:09:33.960Z,11.12
2019-03-03T11:10:33.967Z,11.12
2019-03-03T11:11:33.975Z,11.12
2019-03-03T11:12:34.065Z,11.12
2019-03-03T11:13:33.989Z,11.12
2019-03-03T11:14:33.948Z,11.12
2019-03-03T11:15:33.956Z,11.12
2019-03-03T11:16:33.946Z,11.12
2019-03-03T11:17:33.955Z,11.12
2019-03-03T11:18:33.944Z,11.12
2019-03-03T11:19:34.033Z,11.12
2019-03-03T11:20:33.962Z,11.19
2019-03-03T11:21:33.973Z,11.12
2019-03-03T11:22:34.031Z,11.12
2019-03-03T11:23:34.001Z,11.12
2019-03-03T11:24:33.947Z,11.12
2019-03-03T11:25:33.918Z,11.12
2019-03-03T11:26:33.940Z,11.12
2019-03-03T11:27:33.980Z,11.12
2019-03-03T11:28:33.949Z,11.12
2019-03-03T11:29:33.941Z,11.12
2019-03-03T11:30:33.948Z,11.12
2019-03-03T11:31:33.946Z,11.19
2019-03-03T11:32:33.942Z,11.12
2019-03-03T11:33:33.961Z,11.12
2019-03-03T11:34:33.972Z,11.19
2019-03-03T11:35:33.919Z,11.12
2019-03-03T11:36:33.972Z,11.19
2019-03-03T11:37:33.922Z,11.19
2019-03-03T11:38:33.912Z,11.25
2019-03-03T11:39:33.921Z,11.19
2019-03-03T11:40:33.925Z,11.19
2019-03-03T11:41:33.981Z,11.25
2019-03-03T11:42:33.951Z,11.25
2019-03-03T11:43:33.962Z,11.25
2019-03-03T11:44:33.987Z,11.25
2019-03-03T11:45:33.968Z,11.25
2019-03-03T11:46:33.957Z,11.25
2019-03-03T11:47:33.908Z,11.25
2019-03-03T11:48:33.941Z,11.25
2019-03-03T11:49:33.903Z,11.31
2019-03-03T11:50:33.901Z,11.31
2019-03-03T11:51:33.947Z,11.25
2019-03-03T11:52:34.038Z,11.31
2019-03-03T11:53:33.923Z,11.31
2019-03-03T11:54:33.913Z,11.31
2019-03-03T11:55:33.909Z,11.31
2019-03-03T11:56:33.920Z,11.31
2019-03-03T11:57:33.921Z,11.31
2019-03-03T11:58:33.888Z,11.31
2019-03-03T11:59:33.942Z,11.31
2019-03-03T12:00:33.898Z,11.31
2019-03-03T12:01:33.910Z,11.31
2019-03-03T12:02:33.885Z,11.38
2019-03-03T12:03:33.880Z,11.38
2019-03-03T12:04:33.952Z,11.31
2019-03-03T12:05:33.932Z,11.31
2019-03-03T12:06:33.932Z,11.31
2019-03-03T12:07:33.892Z,11.31
2019-03-03T12:08:33.875Z,11.38
2019-03-03T12:09:33.911Z,11.31
2019-03-03T12:10:34.481Z,11.31
2019-03-03T12:11:33.862Z,11.31
2019-03-03T12:12:33.873Z,11.31
2019-03-03T12:13:33.880Z,11.38
2019-03-03T12:14:33.876Z,11.38
2019-03-03T12:15:33.858Z,11.38
2019-03-03T12:16:33.888Z,11.44
2019-03-03T12:17:35.503Z,11.44
2019-03-03T12:18:34.263Z,11.5
2019-03-03T12:19:33.887Z,11.5
2019-03-03T12:20:33.858Z,11.56
2019-03-03T12:21:33.895Z,11.56
2019-03-03T12:22:33.878Z,11.56
2019-03-03T12:23:33.869Z,11.56
2019-03-03T12:24:33.870Z,11.63
2019-03-03T12:25:33.853Z,11.63
2019-03-03T12:26:33.860Z,11.69
2019-03-03T12:27:33.867Z,11.69
2019-03-03T12:28:33.892Z,11.69
2019-03-03T12:29:33.858Z,11.69
2019-03-03T12:30:33.864Z,11.69
2019-03-03T12:31:33.896Z,11.69
2019-03-03T12:32:33.848Z,11.69
2019-03-03T12:33:33.857Z,11.63
2019-03-03T12:34:33.865Z,11.69
2019-03-03T12:35:33.913Z,11.69
2019-03-03T12:36:33.864Z,11.69
2019-03-03T12:37:33.861Z,11.69
2019-03-03T12:38:33.844Z,11.69
2019-03-03T12:39:33.847Z,11.63
2019-03-03T12:40:33.941Z,11.69
2019-03-03T12:41:33.832Z,11.69
2019-03-03T12:42:33.845Z,11.69
2019-03-03T12:43:33.849Z,11.69
2019-03-03T12:44:33.889Z,11.63
2019-03-03T12:45:33.847Z,11.69
2019-03-03T12:46:33.840Z,11.69
2019-03-03T12:47:33.893Z,11.69
2019-03-03T12:48:33.855Z,11.75
2019-03-03T12:49:33.839Z,11.75
2019-03-03T12:50:33.810Z,11.75
2019-03-03T12:51:33.898Z,11.75
2019-03-03T12:52:33.911Z,11.75
2019-03-03T12:53:34.997Z,11.75
2019-03-03T12:54:33.877Z,11.75
2019-03-03T12:55:33.839Z,11.75
2019-03-03T12:56:33.855Z,11.75
2019-03-03T12:57:33.852Z,11.75
2019-03-03T12:58:33.823Z,11.81
2019-03-03T12:59:33.861Z,11.81
2019-03-03T13:00:33.836Z,11.75
2019-03-03T13:01:33.943Z,11.75
2019-03-03T13:02:33.875Z,11.75
2019-03-03T13:03:33.814Z,11.75
2019-03-03T13:04:33.827Z,11.81
2019-03-03T13:05:33.813Z,11.81
2019-03-03T13:06:33.824Z,11.81
2019-03-03T13:07:33.822Z,11.81
2019-03-03T13:08:33.844Z,11.81
2019-03-03T13:09:33.797Z,11.81
2019-03-03T13:10:33.790Z,11.81
2019-03-03T13:11:34.006Z,11.81
2019-03-03T13:12:33.806Z,11.81